Terminal Aerodrome Forecast
Issued by NWS

Home | Current Version | Previous Version | Text Only | Print | Product List | Glossary On
Versions: 1 2 3 4 5 6 7 8 9 10 11 12 13 14 15
000
FTUS42 KMLB 010532
TAFTIX
TAF
KTIX 010532Z 0106/0206 21004KT P6SM FEW030 SCT100 SCT250
     FM011800 21009KT P6SM SCT030 BKN250
     FM012100 17011KT P6SM BKN030 BKN100
      AMD NOT SKED TIL 011200=

USA.gov is the U.S. government's official web portal to all federal, state and local government web resources and services.